sensor_id;sensor_type;location;lat;lon;timestamp;P1;durP1;ratioP1;P2;durP2;ratioP2
17943;SDS011;9097;47.028;15.444;2024-03-08T07:49:47;9.23;;;3.90;;
17943;SDS011;9097;47.028;15.444;2024-03-08T07:52:50;10.43;;;4.17;;
17943;SDS011;9097;47.028;15.444;2024-03-08T07:55:52;12.70;;;5.20;;
17943;SDS011;9097;47.028;15.444;2024-03-08T07:58:55;9.93;;;4.87;;
17943;SDS011;9097;47.028;15.444;2024-03-08T08:01:58;12.57;;;5.27;;
17943;SDS011;9097;47.028;15.444;2024-03-08T08:05:02;11.10;;;4.83;;
17943;SDS011;9097;47.028;15.444;2024-03-08T08:08:05;9.67;;;4.27;;
17943;SDS011;9097;47.028;15.444;2024-03-08T08:11:10;7.80;;;4.33;;
17943;SDS011;9097;47.028;15.444;2024-03-08T08:14:13;11.23;;;4.73;;
17943;SDS011;9097;47.028;15.444;2024-03-08T08:17:15;8.07;;;4.57;;
17943;SDS011;9097;47.028;15.444;2024-03-08T08:20:19;9.10;;;4.23;;
17943;SDS011;9097;47.028;15.444;2024-03-08T08:23:22;12.13;;;5.00;;
17943;SDS011;9097;47.028;15.444;2024-03-08T08:26:25;10.93;;;4.73;;
17943;SDS011;9097;47.028;15.444;2024-03-08T08:29:27;12.13;;;5.67;;
17943;SDS011;9097;47.028;15.444;2024-03-08T08:32:30;11.03;;;5.03;;
17943;SDS011;9097;47.028;15.444;2024-03-08T08:35:35;10.03;;;4.40;;
17943;SDS011;9097;47.028;15.444;2024-03-08T08:38:37;9.47;;;5.40;;
17943;SDS011;9097;47.028;15.444;2024-03-08T08:41:43;12.30;;;6.03;;
17943;SDS011;9097;47.028;15.444;2024-03-08T08:44:45;14.80;;;5.63;;
17943;SDS011;9097;47.028;15.444;2024-03-08T08:47:50;7.53;;;3.90;;
17943;SDS011;9097;47.028;15.444;2024-03-08T08:50:54;11.57;;;5.10;;
17943;SDS011;9097;47.028;15.444;2024-03-08T08:53:56;14.37;;;4.80;;
17943;SDS011;9097;47.028;15.444;2024-03-08T08:56:58;9.50;;;5.37;;
17943;SDS011;9097;47.028;15.444;2024-03-08T09:00:08;9.53;;;4.53;;
17943;SDS011;9097;47.028;15.444;2024-03-08T09:03:14;13.63;;;5.40;;
17943;SDS011;9097;47.028;15.444;2024-03-08T09:06:18;10.87;;;5.60;;
17943;SDS011;9097;47.028;15.444;2024-03-08T09:09:21;11.17;;;4.97;;
17943;SDS011;9097;47.028;15.444;2024-03-08T09:12:26;8.43;;;3.83;;
17943;SDS011;9097;47.028;15.444;2024-03-08T09:15:28;12.03;;;4.63;;
17943;SDS011;9097;47.028;15.444;2024-03-08T09:18:30;6.13;;;3.03;;
17943;SDS011;9097;47.028;15.444;2024-03-08T09:21:35;9.13;;;4.43;;
17943;SDS011;9097;47.028;15.444;2024-03-08T09:24:37;13.03;;;4.97;;
17943;SDS011;9097;47.028;15.444;2024-03-08T09:27:40;10.73;;;5.00;;
17943;SDS011;9097;47.028;15.444;2024-03-08T09:30:43;6.50;;;3.43;;
17943;SDS011;9097;47.028;15.444;2024-03-08T09:33:46;8.87;;;4.73;;
17943;SDS011;9097;47.028;15.444;2024-03-08T09:36:50;6.47;;;3.27;;
17943;SDS011;9097;47.028;15.444;2024-03-08T09:39:53;9.37;;;4.67;;
17943;SDS011;9097;47.028;15.444;2024-03-08T09:42:55;9.87;;;4.67;;
17943;SDS011;9097;47.028;15.444;2024-03-08T09:45:58;8.50;;;4.20;;
17943;SDS011;9097;47.028;15.444;2024-03-08T09:49:01;12.13;;;4.63;;
17943;SDS011;9097;47.028;15.444;2024-03-08T09:52:07;7.27;;;3.93;;
17943;SDS011;9097;47.028;15.444;2024-03-08T09:55:10;6.20;;;3.70;;
17943;SDS011;9097;47.028;15.444;2024-03-08T09:58:13;7.70;;;3.63;;
17943;SDS011;9097;47.028;15.444;2024-03-08T10:01:36;9.67;;;4.03;;
17943;SDS011;9097;47.028;15.444;2024-03-08T10:04:40;10.13;;;3.87;;
17943;SDS011;9097;47.028;15.444;2024-03-08T10:07:47;8.80;;;4.43;;
17943;SDS011;9097;47.028;15.444;2024-03-08T10:10:50;10.17;;;4.30;;
17943;SDS011;9097;47.028;15.444;2024-03-08T10:13:53;11.03;;;4.00;;
17943;SDS011;9097;47.028;15.444;2024-03-08T10:16:55;10.00;;;4.03;;
17943;SDS011;9097;47.028;15.444;2024-03-08T10:20:00;9.40;;;4.37;;
17943;SDS011;9097;47.028;15.444;2024-03-08T10:23:04;5.93;;;3.17;;
17943;SDS011;9097;47.028;15.444;2024-03-08T10:26:10;8.23;;;4.03;;
17943;SDS011;9097;47.028;15.444;2024-03-08T10:29:14;7.97;;;4.37;;
17943;SDS011;9097;47.028;15.444;2024-03-08T10:32:18;5.20;;;2.70;;
17943;SDS011;9097;47.028;15.444;2024-03-08T10:35:20;7.47;;;3.37;;
17943;SDS011;9097;47.028;15.444;2024-03-08T10:38:25;7.87;;;3.27;;
17943;SDS011;9097;47.028;15.444;2024-03-08T10:41:28;8.40;;;3.93;;
17943;SDS011;9097;47.028;15.444;2024-03-08T10:44:36;4.23;;;2.97;;
17943;SDS011;9097;47.028;15.444;2024-03-08T10:47:42;8.43;;;4.03;;
17943;SDS011;9097;47.028;15.444;2024-03-08T10:50:49;8.43;;;4.03;;
17943;SDS011;9097;47.028;15.444;2024-03-08T10:53:54;6.53;;;3.07;;
17943;SDS011;9097;47.028;15.444;2024-03-08T10:56:57;6.23;;;3.17;;
17943;SDS011;9097;47.028;15.444;2024-03-08T11:00:03;6.40;;;2.70;;
17943;SDS011;9097;47.028;15.444;2024-03-08T11:03:09;7.40;;;3.63;;
17943;SDS011;9097;47.028;15.444;2024-03-08T11:06:41;5.73;;;2.97;;
17943;SDS011;9097;47.028;15.444;2024-03-08T11:10:04;6.80;;;2.63;;
17943;SDS011;9097;47.028;15.444;2024-03-08T11:13:24;4.20;;;2.40;;
17943;SDS011;9097;47.028;15.444;2024-03-08T11:16:37;4.07;;;2.43;;
17943;SDS011;9097;47.028;15.444;2024-03-08T11:19:46;5.03;;;2.60;;
17943;SDS011;9097;47.028;15.444;2024-03-08T11:22:49;6.73;;;2.63;;
17943;SDS011;9097;47.028;15.444;2024-03-08T11:25:54;6.20;;;2.70;;
17943;SDS011;9097;47.028;15.444;2024-03-08T11:28:57;8.30;;;3.37;;
17943;SDS011;9097;47.028;15.444;2024-03-08T11:32:19;10.07;;;3.70;;
17943;SDS011;9097;47.028;15.444;2024-03-08T11:35:22;6.40;;;3.17;;
17943;SDS011;9097;47.028;15.444;2024-03-08T11:38:24;6.73;;;2.90;;
17943;SDS011;9097;47.028;15.444;2024-03-08T11:41:28;4.47;;;2.57;;
17943;SDS011;9097;47.028;15.444;2024-03-08T11:44:31;3.93;;;2.30;;
17943;SDS011;9097;47.028;15.444;2024-03-08T11:47:34;5.50;;;3.03;;
17943;SDS011;9097;47.028;15.444;2024-03-08T11:50:40;4.97;;;2.67;;
17943;SDS011;9097;47.028;15.444;2024-03-08T11:53:43;3.57;;;2.40;;
17943;SDS011;9097;47.028;15.444;2024-03-08T11:56:47;5.70;;;3.63;;
17943;SDS011;9097;47.028;15.444;2024-03-08T11:59:50;4.93;;;2.90;;
17943;SDS011;9097;47.028;15.444;2024-03-08T12:03:02;4.87;;;3.47;;
17943;SDS011;9097;47.028;15.444;2024-03-08T12:06:05;7.77;;;3.30;;
17943;SDS011;9097;47.028;15.444;2024-03-08T12:09:09;5.57;;;3.07;;
17943;SDS011;9097;47.028;15.444;2024-03-08T12:12:14;6.10;;;2.83;;
17943;SDS011;9097;47.028;15.444;2024-03-08T12:15:17;5.00;;;2.77;;
17943;SDS011;9097;47.028;15.444;2024-03-08T12:18:20;8.07;;;3.13;;
17943;SDS011;9097;47.028;15.444;2024-03-08T12:21:23;5.93;;;2.83;;
17943;SDS011;9097;47.028;15.444;2024-03-08T12:24:29;4.83;;;2.17;;
17943;SDS011;9097;47.028;15.444;2024-03-08T12:27:33;5.30;;;2.80;;
17943;SDS011;9097;47.028;15.444;2024-03-08T12:30:43;6.30;;;3.10;;
17943;SDS011;9097;47.028;15.444;2024-03-08T12:33:48;6.50;;;2.77;;
17943;SDS011;9097;47.028;15.444;2024-03-08T12:36:52;6.93;;;2.60;;
17943;SDS011;9097;47.028;15.444;2024-03-08T12:39:55;4.83;;;2.37;;
17943;SDS011;9097;47.028;15.444;2024-03-08T12:43:00;5.33;;;2.60;;
17943;SDS011;9097;47.028;15.444;2024-03-08T12:46:03;4.93;;;2.57;;
17943;SDS011;9097;47.028;15.444;2024-03-08T12:49:07;7.73;;;3.20;;
17943;SDS011;9097;47.028;15.444;2024-03-08T12:52:10;4.43;;;2.73;;
17943;SDS011;9097;47.028;15.444;2024-03-08T12:55:13;4.97;;;2.73;;
17943;SDS011;9097;47.028;15.444;2024-03-08T12:58:18;6.03;;;2.67;;
17943;SDS011;9097;47.028;15.444;2024-03-08T13:01:21;4.40;;;2.27;;
17943;SDS011;9097;47.028;15.444;2024-03-08T13:04:24;5.80;;;2.90;;
17943;SDS011;9097;47.028;15.444;2024-03-08T13:07:27;6.20;;;2.83;;
17943;SDS011;9097;47.028;15.444;2024-03-08T13:10:31;7.00;;;3.07;;
17943;SDS011;9097;47.028;15.444;2024-03-08T13:13:35;6.10;;;3.27;;
17943;SDS011;9097;47.028;15.444;2024-03-08T13:16:40;5.27;;;2.30;;
17943;SDS011;9097;47.028;15.444;2024-03-08T13:19:47;3.73;;;2.20;;
17943;SDS011;9097;47.028;15.444;2024-03-08T13:22:50;6.50;;;2.53;;
17943;SDS011;9097;47.028;15.444;2024-03-08T13:25:53;4.33;;;2.00;;
17943;SDS011;9097;47.028;15.444;2024-03-08T13:28:59;5.37;;;2.73;;
17943;SDS011;9097;47.028;15.444;2024-03-08T13:32:01;6.37;;;3.30;;
17943;SDS011;9097;47.028;15.444;2024-03-08T13:35:07;8.03;;;2.83;;
17943;SDS011;9097;47.028;15.444;2024-03-08T13:38:13;5.17;;;2.33;;
17943;SDS011;9097;47.028;15.444;2024-03-08T13:41:16;5.47;;;2.20;;
17943;SDS011;9097;47.028;15.444;2024-03-08T13:44:24;4.87;;;2.57;;
17943;SDS011;9097;47.028;15.444;2024-03-08T13:47:28;4.80;;;2.80;;
17943;SDS011;9097;47.028;15.444;2024-03-08T13:50:31;8.07;;;3.87;;
17943;SDS011;9097;47.028;15.444;2024-03-08T13:53:35;8.13;;;3.30;;
17943;SDS011;9097;47.028;15.444;2024-03-08T13:56:37;9.53;;;4.17;;
17943;SDS011;9097;47.028;15.444;2024-03-08T13:59:41;5.57;;;3.67;;
17943;SDS011;9097;47.028;15.444;2024-03-08T14:02:44;9.93;;;3.70;;
17943;SDS011;9097;47.028;15.444;2024-03-08T14:05:47;5.63;;;2.47;;
17943;SDS011;9097;47.028;15.444;2024-03-08T14:08:50;5.43;;;3.00;;
17943;SDS011;9097;47.028;15.444;2024-03-08T14:11:53;5.53;;;3.10;;
17943;SDS011;9097;47.028;15.444;2024-03-08T14:14:57;9.53;;;2.67;;
17943;SDS011;9097;47.028;15.444;2024-03-08T14:18:00;5.80;;;2.87;;
17943;SDS011;9097;47.028;15.444;2024-03-08T14:21:03;5.33;;;2.70;;
17943;SDS011;9097;47.028;15.444;2024-03-08T14:24:06;7.73;;;2.80;;
17943;SDS011;9097;47.028;15.444;2024-03-08T14:27:09;4.40;;;2.57;;
17943;SDS011;9097;47.028;15.444;2024-03-08T14:30:13;9.50;;;3.37;;
17943;SDS011;9097;47.028;15.444;2024-03-08T14:33:32;6.37;;;3.17;;
17943;SDS011;9097;47.028;15.444;2024-03-08T14:36:34;8.77;;;3.97;;
17943;SDS011;9097;47.028;15.444;2024-03-08T14:39:38;5.60;;;2.97;;
17943;SDS011;9097;47.028;15.444;2024-03-08T14:42:41;6.20;;;3.50;;
17943;SDS011;9097;47.028;15.444;2024-03-08T14:45:46;6.23;;;2.67;;
17943;SDS011;9097;47.028;15.444;2024-03-08T14:48:49;6.23;;;3.17;;
17943;SDS011;9097;47.028;15.444;2024-03-08T14:51:52;5.93;;;3.10;;
17943;SDS011;9097;47.028;15.444;2024-03-08T14:54:55;5.83;;;3.23;;
17943;SDS011;9097;47.028;15.444;2024-03-08T14:57:58;4.20;;;2.50;;
17943;SDS011;9097;47.028;15.444;2024-03-08T15:01:02;7.37;;;3.20;;
17943;SDS011;9097;47.028;15.444;2024-03-08T15:04:07;5.37;;;2.57;;
17943;SDS011;9097;47.028;15.444;2024-03-08T15:07:10;5.00;;;3.13;;
17943;SDS011;9097;47.028;15.444;2024-03-08T15:10:13;7.30;;;3.57;;
17943;SDS011;9097;47.028;15.444;2024-03-08T15:13:16;6.27;;;3.37;;
17943;SDS011;9097;47.028;15.444;2024-03-08T15:16:24;7.60;;;3.60;;
17943;SDS011;9097;47.028;15.444;2024-03-08T15:19:27;7.37;;;3.13;;
17943;SDS011;9097;47.028;15.444;2024-03-08T15:22:29;5.33;;;2.97;;
17943;SDS011;9097;47.028;15.444;2024-03-08T15:25:32;9.57;;;4.20;;
17943;SDS011;9097;47.028;15.444;2024-03-08T15:28:36;10.03;;;4.57;;
17943;SDS011;9097;47.028;15.444;2024-03-08T15:31:40;7.87;;;4.27;;
17943;SDS011;9097;47.028;15.444;2024-03-08T15:34:43;9.63;;;3.93;;
17943;SDS011;9097;47.028;15.444;2024-03-08T15:37:46;12.53;;;5.10;;
17943;SDS011;9097;47.028;15.444;2024-03-08T15:40:48;10.07;;;5.07;;
17943;SDS011;9097;47.028;15.444;2024-03-08T15:43:51;8.70;;;4.00;;
17943;SDS011;9097;47.028;15.444;2024-03-08T15:46:57;10.53;;;4.33;;
17943;SDS011;9097;47.028;15.444;2024-03-08T15:50:00;8.23;;;4.80;;
17943;SDS011;9097;47.028;15.444;2024-03-08T15:53:04;11.63;;;4.60;;
17943;SDS011;9097;47.028;15.444;2024-03-08T15:56:06;9.97;;;4.20;;
17943;SDS011;9097;47.028;15.444;2024-03-08T15:59:09;12.50;;;4.97;;
17943;SDS011;9097;47.028;15.444;2024-03-08T16:02:14;9.63;;;4.10;;
17943;SDS011;9097;47.028;15.444;2024-03-08T16:05:18;12.33;;;4.90;;
17943;SDS011;9097;47.028;15.444;2024-03-08T16:08:22;11.83;;;5.80;;
17943;SDS011;9097;47.028;15.444;2024-03-08T16:11:25;9.97;;;5.47;;
17943;SDS011;9097;47.028;15.444;2024-03-08T16:14:27;10.83;;;4.33;;
17943;SDS011;9097;47.028;15.444;2024-03-08T16:17:31;15.20;;;5.37;;
17943;SDS011;9097;47.028;15.444;2024-03-08T16:20:34;12.03;;;4.70;;
17943;SDS011;9097;47.028;15.444;2024-03-08T16:23:36;10.10;;;5.17;;
17943;SDS011;9097;47.028;15.444;2024-03-08T16:26:39;9.40;;;4.47;;
17943;SDS011;9097;47.028;15.444;2024-03-08T16:29:41;10.07;;;4.53;;
17943;SDS011;9097;47.028;15.444;2024-03-08T16:32:46;12.57;;;4.90;;
17943;SDS011;9097;47.028;15.444;2024-03-08T16:35:52;12.60;;;5.93;;
17943;SDS011;9097;47.028;15.444;2024-03-08T16:38:54;11.73;;;5.07;;
17943;SDS011;9097;47.028;15.444;2024-03-08T16:41:58;14.00;;;6.73;;
17943;SDS011;9097;47.028;15.444;2024-03-08T16:45:06;17.83;;;7.47;;
17943;SDS011;9097;47.028;15.444;2024-03-08T16:48:11;16.63;;;6.27;;
17943;SDS011;9097;47.028;15.444;2024-03-08T16:51:14;16.33;;;5.83;;
17943;SDS011;9097;47.028;15.444;2024-03-08T16:54:18;14.03;;;5.47;;
17943;SDS011;9097;47.028;15.444;2024-03-08T16:57:23;12.90;;;5.63;;
17943;SDS011;9097;47.028;15.444;2024-03-08T17:00:26;14.93;;;7.30;;
17943;SDS011;9097;47.028;15.444;2024-03-08T17:03:30;14.43;;;5.60;;
17943;SDS011;9097;47.028;15.444;2024-03-08T17:06:33;20.77;;;6.97;;
17943;SDS011;9097;47.028;15.444;2024-03-08T17:09:35;15.57;;;6.70;;
17943;SDS011;9097;47.028;15.444;2024-03-08T17:12:38;18.87;;;6.80;;
17943;SDS011;9097;47.028;15.444;2024-03-08T17:15:41;14.30;;;6.67;;
17943;SDS011;9097;47.028;15.444;2024-03-08T17:18:46;12.17;;;5.53;;
17943;SDS011;9097;47.028;15.444;2024-03-08T17:21:48;15.63;;;7.30;;
17943;SDS011;9097;47.028;15.444;2024-03-08T17:24:51;19.43;;;6.80;;
17943;SDS011;9097;47.028;15.444;2024-03-08T17:27:56;14.33;;;6.43;;
17943;SDS011;9097;47.028;15.444;2024-03-08T17:34:40;20.20;;;7.00;;
17943;SDS011;9097;47.028;15.444;2024-03-08T17:37:42;15.07;;;6.53;;
17943;SDS011;9097;47.028;15.444;2024-03-08T17:40:47;21.90;;;7.23;;
17943;SDS011;9097;47.028;15.444;2024-03-08T17:43:50;19.37;;;7.73;;
17943;SDS011;9097;47.028;15.444;2024-03-08T17:46:52;19.83;;;8.13;;
17943;SDS011;9097;47.028;15.444;2024-03-08T17:49:56;13.57;;;6.30;;
17943;SDS011;9097;47.028;15.444;2024-03-08T17:53:00;18.03;;;7.93;;
17943;SDS011;9097;47.028;15.444;2024-03-08T17:56:04;23.60;;;8.57;;
17943;SDS011;9097;47.028;15.444;2024-03-08T17:59:07;19.97;;;8.57;;
17943;SDS011;9097;47.028;15.444;2024-03-08T18:02:11;21.40;;;8.60;;
17943;SDS011;9097;47.028;15.444;2024-03-08T18:05:15;14.57;;;9.40;;
17943;SDS011;9097;47.028;15.444;2024-03-08T18:08:18;22.30;;;8.67;;
17943;SDS011;9097;47.028;15.444;2024-03-08T18:11:20;22.73;;;9.43;;
17943;SDS011;9097;47.028;15.444;2024-03-08T18:14:23;17.43;;;7.87;;
17943;SDS011;9097;47.028;15.444;2024-03-08T18:17:26;16.73;;;7.07;;
17943;SDS011;9097;47.028;15.444;2024-03-08T18:20:31;16.60;;;7.90;;
17943;SDS011;9097;47.028;15.444;2024-03-08T18:23:34;22.70;;;8.30;;
17943;SDS011;9097;47.028;15.444;2024-03-08T18:26:36;17.77;;;7.30;;
17943;SDS011;9097;47.028;15.444;2024-03-08T18:29:41;19.03;;;7.73;;
17943;SDS011;9097;47.028;15.444;2024-03-08T18:32:44;15.77;;;6.60;;
17943;SDS011;9097;47.028;15.444;2024-03-08T18:35:50;20.17;;;8.57;;
17943;SDS011;9097;47.028;15.444;2024-03-08T18:38:54;16.90;;;7.47;;
17943;SDS011;9097;47.028;15.444;2024-03-08T18:41:58;20.63;;;8.67;;
17943;SDS011;9097;47.028;15.444;2024-03-08T18:45:00;19.90;;;9.00;;
17943;SDS011;9097;47.028;15.444;2024-03-08T18:48:09;14.50;;;7.80;;
17943;SDS011;9097;47.028;15.444;2024-03-08T18:51:15;19.57;;;8.80;;
17943;SDS011;9097;47.028;15.444;2024-03-08T18:54:18;18.13;;;9.73;;
17943;SDS011;9097;47.028;15.444;2024-03-08T18:57:21;23.20;;;9.03;;
17943;SDS011;9097;47.028;15.444;2024-03-08T19:00:24;20.03;;;8.57;;
17943;SDS011;9097;47.028;15.444;2024-03-08T19:03:35;17.77;;;7.80;;
17943;SDS011;9097;47.028;15.444;2024-03-08T19:06:40;21.90;;;8.57;;
17943;SDS011;9097;47.028;15.444;2024-03-08T19:09:42;16.07;;;7.70;;
17943;SDS011;9097;47.028;15.444;2024-03-08T19:12:46;22.63;;;9.53;;
17943;SDS011;9097;47.028;15.444;2024-03-08T19:15:49;24.20;;;8.90;;
17943;SDS011;9097;47.028;15.444;2024-03-08T19:18:52;20.87;;;8.60;;
17943;SDS011;9097;47.028;15.444;2024-03-08T19:21:56;16.00;;;6.90;;
17943;SDS011;9097;47.028;15.444;2024-03-08T19:24:58;18.20;;;7.43;;
17943;SDS011;9097;47.028;15.444;2024-03-08T19:28:03;20.37;;;8.57;;
17943;SDS011;9097;47.028;15.444;2024-03-08T19:31:07;20.07;;;8.87;;
17943;SDS011;9097;47.028;15.444;2024-03-08T19:34:09;18.80;;;7.53;;
17943;SDS011;9097;47.028;15.444;2024-03-08T19:37:13;19.63;;;8.80;;
17943;SDS011;9097;47.028;15.444;2024-03-08T19:40:17;22.93;;;9.37;;
17943;SDS011;9097;47.028;15.444;2024-03-08T19:43:21;21.63;;;8.83;;
17943;SDS011;9097;47.028;15.444;2024-03-08T19:46:27;19.73;;;9.23;;
17943;SDS011;9097;47.028;15.444;2024-03-08T19:49:32;16.40;;;8.23;;
17943;SDS011;9097;47.028;15.444;2024-03-08T19:52:37;17.93;;;9.03;;
17943;SDS011;9097;47.028;15.444;2024-03-08T19:55:40;20.23;;;8.20;;
17943;SDS011;9097;47.028;15.444;2024-03-08T19:58:44;15.07;;;7.47;;
17943;SDS011;9097;47.028;15.444;2024-03-08T20:01:47;20.33;;;7.43;;
17943;SDS011;9097;47.028;15.444;2024-03-08T20:04:51;20.87;;;8.27;;
17943;SDS011;9097;47.028;15.444;2024-03-08T20:07:57;19.67;;;7.93;;
17943;SDS011;9097;47.028;15.444;2024-03-08T20:11:04;15.57;;;7.70;;
17943;SDS011;9097;47.028;15.444;2024-03-08T20:14:09;18.07;;;7.93;;
17943;SDS011;9097;47.028;15.444;2024-03-08T20:17:12;18.87;;;8.00;;
17943;SDS011;9097;47.028;15.444;2024-03-08T20:20:14;26.63;;;9.60;;
17943;SDS011;9097;47.028;15.444;2024-03-08T20:23:21;20.13;;;8.37;;
17943;SDS011;9097;47.028;15.444;2024-03-08T20:26:24;15.40;;;7.07;;
17943;SDS011;9097;47.028;15.444;2024-03-08T20:29:27;18.57;;;9.97;;
17943;SDS011;9097;47.028;15.444;2024-03-08T20:32:31;17.03;;;7.23;;
17943;SDS011;9097;47.028;15.444;2024-03-08T20:35:34;16.33;;;9.07;;
17943;SDS011;9097;47.028;15.444;2024-03-08T20:38:38;17.37;;;8.37;;
17943;SDS011;9097;47.028;15.444;2024-03-08T20:41:41;19.63;;;7.83;;
17943;SDS011;9097;47.028;15.444;2024-03-08T20:44:44;21.87;;;9.30;;
17943;SDS011;9097;47.028;15.444;2024-03-08T20:47:47;20.37;;;8.77;;
17943;SDS011;9097;47.028;15.444;2024-03-08T20:50:49;23.77;;;8.43;;
17943;SDS011;9097;47.028;15.444;2024-03-08T20:53:55;24.30;;;9.10;;
17943;SDS011;9097;47.028;15.444;2024-03-08T20:56:58;18.20;;;8.20;;
17943;SDS011;9097;47.028;15.444;2024-03-08T21:00:00;23.70;;;10.20;;
17943;SDS011;9097;47.028;15.444;2024-03-08T21:03:06;23.57;;;8.63;;
17943;SDS011;9097;47.028;15.444;2024-03-08T21:06:09;28.87;;;9.33;;
17943;SDS011;9097;47.028;15.444;2024-03-08T21:09:12;19.13;;;10.07;;
17943;SDS011;9097;47.028;15.444;2024-03-08T21:12:15;23.93;;;8.57;;
17943;SDS011;9097;47.028;15.444;2024-03-08T21:15:21;24.67;;;9.20;;
17943;SDS011;9097;47.028;15.444;2024-03-08T21:18:24;15.70;;;8.60;;
17943;SDS011;9097;47.028;15.444;2024-03-08T21:21:26;13.00;;;7.33;;
17943;SDS011;9097;47.028;15.444;2024-03-08T21:24:30;19.83;;;8.03;;
17943;SDS011;9097;47.028;15.444;2024-03-08T21:27:33;18.23;;;7.30;;
17943;SDS011;9097;47.028;15.444;2024-03-08T21:30:36;16.93;;;7.33;;
17943;SDS011;9097;47.028;15.444;2024-03-08T21:33:39;18.70;;;8.90;;
17943;SDS011;9097;47.028;15.444;2024-03-08T21:36:42;19.50;;;9.40;;
17943;SDS011;9097;47.028;15.444;2024-03-08T21:39:47;15.63;;;7.63;;
17943;SDS011;9097;47.028;15.444;2024-03-08T21:42:50;19.30;;;9.47;;
17943;SDS011;9097;47.028;15.444;2024-03-08T21:45:53;16.23;;;8.30;;
17943;SDS011;9097;47.028;15.444;2024-03-08T21:48:57;21.13;;;8.07;;
17943;SDS011;9097;47.028;15.444;2024-03-08T21:52:00;21.03;;;8.60;;
17943;SDS011;9097;47.028;15.444;2024-03-08T21:55:06;20.50;;;9.20;;
17943;SDS011;9097;47.028;15.444;2024-03-08T21:58:10;15.97;;;8.10;;
17943;SDS011;9097;47.028;15.444;2024-03-08T22:01:13;21.87;;;8.20;;
17943;SDS011;9097;47.028;15.444;2024-03-08T22:04:17;19.90;;;8.83;;
17943;SDS011;9097;47.028;15.444;2024-03-08T22:07:20;17.20;;;7.97;;
17943;SDS011;9097;47.028;15.444;2024-03-08T22:10:25;20.43;;;8.60;;
17943;SDS011;9097;47.028;15.444;2024-03-08T22:13:29;15.97;;;7.80;;
17943;SDS011;9097;47.028;15.444;2024-03-08T22:16:32;15.77;;;7.27;;
17943;SDS011;9097;47.028;15.444;2024-03-08T22:19:36;19.43;;;8.80;;
17943;SDS011;9097;47.028;15.444;2024-03-08T22:22:38;18.93;;;7.63;;
17943;SDS011;9097;47.028;15.444;2024-03-08T22:25:45;11.87;;;6.90;;
17943;SDS011;9097;47.028;15.444;2024-03-08T22:28:47;15.33;;;6.20;;
17943;SDS011;9097;47.028;15.444;2024-03-08T22:31:51;16.63;;;6.60;;
17943;SDS011;9097;47.028;15.444;2024-03-08T22:34:54;13.60;;;6.23;;
17943;SDS011;9097;47.028;15.444;2024-03-08T22:37:56;19.67;;;7.93;;
17943;SDS011;9097;47.028;15.444;2024-03-08T22:41:02;22.17;;;8.57;;
17943;SDS011;9097;47.028;15.444;2024-03-08T22:44:04;15.37;;;6.23;;
17943;SDS011;9097;47.028;15.444;2024-03-08T22:47:08;16.40;;;7.97;;
17943;SDS011;9097;47.028;15.444;2024-03-08T22:50:12;16.57;;;7.47;;
17943;SDS011;9097;47.028;15.444;2024-03-08T22:53:15;14.80;;;6.97;;
17943;SDS011;9097;47.028;15.444;2024-03-08T22:56:19;18.50;;;8.10;;
17943;SDS011;9097;47.028;15.444;2024-03-08T22:59:22;16.57;;;7.37;;
17943;SDS011;9097;47.028;15.444;2024-03-08T23:02:24;17.37;;;7.80;;
17943;SDS011;9097;47.028;15.444;2024-03-08T23:05:27;19.07;;;8.03;;
17943;SDS011;9097;47.028;15.444;2024-03-08T23:08:30;18.53;;;7.20;;
17943;SDS011;9097;47.028;15.444;2024-03-08T23:11:33;15.20;;;7.67;;
17943;SDS011;9097;47.028;15.444;2024-03-08T23:14:36;20.97;;;8.23;;
17943;SDS011;9097;47.028;15.444;2024-03-08T23:17:40;15.17;;;6.93;;
17943;SDS011;9097;47.028;15.444;2024-03-08T23:20:42;11.60;;;5.97;;
17943;SDS011;9097;47.028;15.444;2024-03-08T23:23:45;14.27;;;6.60;;
17943;SDS011;9097;47.028;15.444;2024-03-08T23:26:52;14.83;;;6.67;;
17943;SDS011;9097;47.028;15.444;2024-03-08T23:29:54;20.80;;;8.37;;
17943;SDS011;9097;47.028;15.444;2024-03-08T23:32:57;15.47;;;7.43;;
17943;SDS011;9097;47.028;15.444;2024-03-08T23:36:00;16.43;;;7.63;;
17943;SDS011;9097;47.028;15.444;2024-03-08T23:39:03;19.13;;;6.90;;
17943;SDS011;9097;47.028;15.444;2024-03-08T23:42:10;12.20;;;5.40;;
17943;SDS011;9097;47.028;15.444;2024-03-08T23:45:15;18.67;;;8.07;;
17943;SDS011;9097;47.028;15.444;2024-03-08T23:48:20;15.90;;;6.60;;
17943;SDS011;9097;47.028;15.444;2024-03-08T23:51:23;18.17;;;7.57;;
17943;SDS011;9097;47.028;15.444;2024-03-08T23:54:25;18.27;;;6.90;;
17943;SDS011;9097;47.028;15.444;2024-03-08T23:57:29;15.33;;;6.67;;
